sensor_id;sensor_type;location;lat;lon;timestamp;pressure;altitude;pressure_sealevel;temperature;humidity
38452;BME280;24231;52.514;13.438;2023-05-01T00:02:13;101668.98;;;9.53;45.63
38452;BME280;24231;52.514;13.438;2023-05-01T00:04:41;101669.52;;;9.45;45.54
38452;BME280;24231;52.514;13.438;2023-05-01T00:08:50;101669.34;;;9.44;45.76
38452;BME280;24231;52.514;13.438;2023-05-01T00:11:16;101668.05;;;9.26;45.93
38452;BME280;24231;52.514;13.438;2023-05-01T00:13:43;101663.76;;;10.01;44.17
38452;BME280;24231;52.514;13.438;2023-05-01T00:16:11;101667.23;;;9.47;44.99
38452;BME280;24231;52.514;13.438;2023-05-01T00:18:39;101662.20;;;10.06;44.35
38452;BME280;24231;52.514;13.438;2023-05-01T00:21:06;101666.67;;;9.18;45.87
38452;BME280;24231;52.514;13.438;2023-05-01T00:23:33;101663.23;;;9.64;44.79
38452;BME280;24231;52.514;13.438;2023-05-01T00:26:01;101661.77;;;9.17;45.96
38452;BME280;24231;52.514;13.438;2023-05-01T00:28:28;101662.89;;;8.52;47.59
38452;BME280;24231;52.514;13.438;2023-05-01T00:30:56;101661.62;;;8.60;48.12
38452;BME280;24231;52.514;13.438;2023-05-01T00:33:23;101659.16;;;8.78;47.05
38452;BME280;24231;52.514;13.438;2023-05-01T00:35:50;101658.66;;;8.01;48.86
38452;BME280;24231;52.514;13.438;2023-05-01T00:38:18;101656.18;;;8.16;48.83
38452;BME280;24231;52.514;13.438;2023-05-01T00:40:46;101657.93;;;8.59;47.46
38452;BME280;24231;52.514;13.438;2023-05-01T00:43:13;101654.61;;;9.19;46.32
38452;BME280;24231;52.514;13.438;2023-05-01T00:45:42;101650.20;;;8.12;48.53
38452;BME280;24231;52.514;13.438;2023-05-01T00:48:09;101654.17;;;8.02;49.70
38452;BME280;24231;52.514;13.438;2023-05-01T00:50:37;101651.74;;;8.51;48.04
38452;BME280;24231;52.514;13.438;2023-05-01T00:53:04;101645.46;;;8.46;47.87
38452;BME280;24231;52.514;13.438;2023-05-01T00:55:32;101647.58;;;9.34;45.89
38452;BME280;24231;52.514;13.438;2023-05-01T00:57:59;101644.90;;;8.69;47.66
38452;BME280;24231;52.514;13.438;2023-05-01T01:00:27;101643.19;;;8.42;48.48
38452;BME280;24231;52.514;13.438;2023-05-01T01:02:54;101645.18;;;8.33;48.31
38452;BME280;24231;52.514;13.438;2023-05-01T01:05:24;101646.45;;;7.76;50.28
38452;BME280;24231;52.514;13.438;2023-05-01T01:08:07;101639.05;;;8.36;49.11
38452;BME280;24231;52.514;13.438;2023-05-01T01:10:47;101637.65;;;8.33;49.14
38452;BME280;24231;52.514;13.438;2023-05-01T01:13:21;101637.71;;;8.42;48.15
38452;BME280;24231;52.514;13.438;2023-05-01T01:16:01;101637.44;;;8.71;47.78
38452;BME280;24231;52.514;13.438;2023-05-01T01:18:36;101632.47;;;8.19;49.06
38452;BME280;24231;52.514;13.438;2023-05-01T01:21:10;101633.57;;;8.52;47.68
38452;BME280;24231;52.514;13.438;2023-05-01T01:27:49;101632.15;;;7.52;51.80
38452;BME280;24231;52.514;13.438;2023-05-01T01:30:34;101629.87;;;9.19;47.49
38452;BME280;24231;52.514;13.438;2023-05-01T01:36:09;101621.56;;;8.17;49.58
38452;BME280;24231;52.514;13.438;2023-05-01T01:38:42;101618.40;;;8.90;47.95
38452;BME280;24231;52.514;13.438;2023-05-01T01:41:16;101616.77;;;7.81;50.12
38452;BME280;24231;52.514;13.438;2023-05-01T01:43:48;101618.43;;;8.42;48.41
38452;BME280;24231;52.514;13.438;2023-05-01T01:46:19;101612.39;;;9.32;46.88
38452;BME280;24231;52.514;13.438;2023-05-01T01:48:49;101612.40;;;9.56;46.28
38452;BME280;24231;52.514;13.438;2023-05-01T01:51:20;101610.54;;;10.13;45.08
38452;BME280;24231;52.514;13.438;2023-05-01T01:53:51;101614.19;;;8.78;47.68
38452;BME280;24231;52.514;13.438;2023-05-01T01:56:20;101614.66;;;8.49;48.41
38452;BME280;24231;52.514;13.438;2023-05-01T01:58:50;101610.83;;;8.25;49.37
38452;BME280;24231;52.514;13.438;2023-05-01T02:01:19;101607.75;;;7.76;50.73
38452;BME280;24231;52.514;13.438;2023-05-01T02:03:50;101606.77;;;6.99;54.31
38452;BME280;24231;52.514;13.438;2023-05-01T02:06:18;101606.67;;;7.83;51.36
38452;BME280;24231;52.514;13.438;2023-05-01T02:08:48;101603.49;;;7.05;52.80
38452;BME280;24231;52.514;13.438;2023-05-01T02:11:18;101600.89;;;8.05;50.15
38452;BME280;24231;52.514;13.438;2023-05-01T02:13:47;101599.85;;;7.55;52.79
38452;BME280;24231;52.514;13.438;2023-05-01T02:16:15;101598.77;;;6.52;55.20
38452;BME280;24231;52.514;13.438;2023-05-01T02:18:45;101602.59;;;6.25;56.61
38452;BME280;24231;52.514;13.438;2023-05-01T02:21:12;101599.97;;;6.79;55.27
38452;BME280;24231;52.514;13.438;2023-05-01T02:23:41;101596.89;;;6.77;54.58
38452;BME280;24231;52.514;13.438;2023-05-01T02:26:12;101599.21;;;6.58;55.27
38452;BME280;24231;52.514;13.438;2023-05-01T02:28:42;101597.46;;;6.41;55.80
38452;BME280;24231;52.514;13.438;2023-05-01T02:31:09;101594.57;;;7.05;54.24
38452;BME280;24231;52.514;13.438;2023-05-01T02:33:47;101589.04;;;6.99;54.22
38452;BME280;24231;52.514;13.438;2023-05-01T02:36:19;101581.71;;;7.40;53.11
38452;BME280;24231;52.514;13.438;2023-05-01T02:38:47;101579.87;;;6.72;54.35
38452;BME280;24231;52.514;13.438;2023-05-01T02:41:15;101576.87;;;7.32;52.94
38452;BME280;24231;52.514;13.438;2023-05-01T02:43:42;101575.73;;;7.32;52.40
38452;BME280;24231;52.514;13.438;2023-05-01T02:46:12;101576.03;;;6.56;55.26
38452;BME280;24231;52.514;13.438;2023-05-01T02:48:41;101574.86;;;6.62;54.87
38452;BME280;24231;52.514;13.438;2023-05-01T02:51:08;101574.14;;;6.12;56.58
38452;BME280;24231;52.514;13.438;2023-05-01T02:53:35;101569.27;;;6.12;56.83
38452;BME280;24231;52.514;13.438;2023-05-01T02:56:03;101566.76;;;6.18;56.05
38452;BME280;24231;52.514;13.438;2023-05-01T02:58:32;101562.28;;;6.08;56.71
38452;BME280;24231;52.514;13.438;2023-05-01T03:01:00;101560.97;;;6.17;55.88
38452;BME280;24231;52.514;13.438;2023-05-01T03:03:27;101554.70;;;5.88;57.83
38452;BME280;24231;52.514;13.438;2023-05-01T03:05:54;101548.42;;;6.16;56.60
38452;BME280;24231;52.514;13.438;2023-05-01T03:08:21;101546.99;;;6.36;55.86
38452;BME280;24231;52.514;13.438;2023-05-01T03:10:48;101544.24;;;5.89;57.13
38452;BME280;24231;52.514;13.438;2023-05-01T03:13:15;101538.99;;;6.35;56.07
38452;BME280;24231;52.514;13.438;2023-05-01T03:15:43;101534.27;;;6.22;56.04
38452;BME280;24231;52.514;13.438;2023-05-01T03:18:11;101535.98;;;6.23;56.57
38452;BME280;24231;52.514;13.438;2023-05-01T03:20:38;101533.22;;;6.14;56.50
38452;BME280;24231;52.514;13.438;2023-05-01T03:23:05;101531.69;;;5.89;56.84
38452;BME280;24231;52.514;13.438;2023-05-01T03:25:33;101531.33;;;6.39;55.70
38452;BME280;24231;52.514;13.438;2023-05-01T03:27:59;101530.30;;;6.07;56.35
38452;BME280;24231;52.514;13.438;2023-05-01T03:30:27;101526.51;;;6.00;56.72
38452;BME280;24231;52.514;13.438;2023-05-01T03:32:54;101520.57;;;5.94;56.22
38452;BME280;24231;52.514;13.438;2023-05-01T03:35:21;101518.35;;;6.62;54.71
38452;BME280;24231;52.514;13.438;2023-05-01T03:37:49;101520.54;;;6.23;55.00
38452;BME280;24231;52.514;13.438;2023-05-01T03:40:16;101522.62;;;6.14;55.46
38452;BME280;24231;52.514;13.438;2023-05-01T03:42:43;101522.20;;;6.24;54.68
38452;BME280;24231;52.514;13.438;2023-05-01T03:45:10;101522.78;;;6.39;54.75
38452;BME280;24231;52.514;13.438;2023-05-01T03:47:38;101521.97;;;6.06;56.14
38452;BME280;24231;52.514;13.438;2023-05-01T03:50:06;101522.62;;;6.68;54.07
38452;BME280;24231;52.514;13.438;2023-05-01T03:52:33;101522.06;;;6.24;54.71
38452;BME280;24231;52.514;13.438;2023-05-01T03:55:01;101526.57;;;6.48;53.96
38452;BME280;24231;52.514;13.438;2023-05-01T03:57:28;101523.80;;;6.35;54.26
38452;BME280;24231;52.514;13.438;2023-05-01T03:59:56;101519.65;;;6.38;54.57
38452;BME280;24231;52.514;13.438;2023-05-01T04:02:22;101522.17;;;6.10;55.81
38452;BME280;24231;52.514;13.438;2023-05-01T04:04:50;101521.87;;;5.87;56.03
38452;BME280;24231;52.514;13.438;2023-05-01T04:07:17;101521.02;;;5.88;56.34
38452;BME280;24231;52.514;13.438;2023-05-01T04:09:44;101520.40;;;6.03;55.02
38452;BME280;24231;52.514;13.438;2023-05-01T04:12:11;101515.87;;;6.22;54.59
38452;BME280;24231;52.514;13.438;2023-05-01T04:14:38;101513.01;;;6.59;53.10
38452;BME280;24231;52.514;13.438;2023-05-01T04:17:05;101509.39;;;6.80;52.17
38452;BME280;24231;52.514;13.438;2023-05-01T04:19:32;101514.47;;;6.98;50.99
38452;BME280;24231;52.514;13.438;2023-05-01T04:21:59;101511.69;;;8.03;48.90
38452;BME280;24231;52.514;13.438;2023-05-01T04:24:27;101510.37;;;7.52;49.56
38452;BME280;24231;52.514;13.438;2023-05-01T04:26:54;101509.55;;;8.80;47.12
38452;BME280;24231;52.514;13.438;2023-05-01T04:29:21;101510.23;;;8.05;48.15
38452;BME280;24231;52.514;13.438;2023-05-01T04:31:48;101512.79;;;7.90;49.12
38452;BME280;24231;52.514;13.438;2023-05-01T04:34:16;101507.65;;;7.40;50.69
38452;BME280;24231;52.514;13.438;2023-05-01T04:36:43;101507.87;;;7.60;49.51
38452;BME280;24231;52.514;13.438;2023-05-01T04:39:10;101497.80;;;8.91;46.50
38452;BME280;24231;52.514;13.438;2023-05-01T04:41:38;101494.67;;;10.23;42.58
38452;BME280;24231;52.514;13.438;2023-05-01T04:44:05;101491.24;;;10.22;43.23
38452;BME280;24231;52.514;13.438;2023-05-01T04:46:32;101489.51;;;9.75;43.18
38452;BME280;24231;52.514;13.438;2023-05-01T04:48:59;101492.11;;;8.29;46.13
38452;BME280;24231;52.514;13.438;2023-05-01T04:51:26;101487.98;;;9.91;42.46
38452;BME280;24231;52.514;13.438;2023-05-01T04:53:53;101490.94;;;9.39;44.19
38452;BME280;24231;52.514;13.438;2023-05-01T04:56:20;101486.55;;;10.83;41.02
38452;BME280;24231;52.514;13.438;2023-05-01T04:58:47;101485.36;;;10.76;41.27
38452;BME280;24231;52.514;13.438;2023-05-01T05:01:15;101483.94;;;11.93;38.76
38452;BME280;24231;52.514;13.438;2023-05-01T05:03:42;101485.87;;;11.03;40.16
38452;BME280;24231;52.514;13.438;2023-05-01T05:06:10;101482.26;;;10.96;40.47
38452;BME280;24231;52.514;13.438;2023-05-01T05:08:36;101484.05;;;11.49;39.21
38452;BME280;24231;52.514;13.438;2023-05-01T05:11:04;101484.33;;;11.63;39.21
38452;BME280;24231;52.514;13.438;2023-05-01T05:13:31;101472.52;;;12.55;36.76
38452;BME280;24231;52.514;13.438;2023-05-01T05:15:58;101479.36;;;11.55;39.04
38452;BME280;24231;52.514;13.438;2023-05-01T05:18:26;101473.33;;;12.55;36.70
38452;BME280;24231;52.514;13.438;2023-05-01T05:20:53;101472.67;;;11.51;38.85
38452;BME280;24231;52.514;13.438;2023-05-01T05:23:20;101472.63;;;10.53;40.70
38452;BME280;24231;52.514;13.438;2023-05-01T05:25:47;101474.47;;;10.06;41.82
38452;BME280;24231;52.514;13.438;2023-05-01T05:28:13;101467.80;;;12.43;37.50
38452;BME280;24231;52.514;13.438;2023-05-01T05:30:41;101467.64;;;12.08;37.85
38452;BME280;24231;52.514;13.438;2023-05-01T05:33:08;101462.16;;;11.71;38.33
38452;BME280;24231;52.514;13.438;2023-05-01T05:35:35;101467.91;;;11.99;37.54
38452;BME280;24231;52.514;13.438;2023-05-01T05:38:03;101465.26;;;11.88;37.43
38452;BME280;24231;52.514;13.438;2023-05-01T05:40:30;101455.73;;;11.09;39.11
38452;BME280;24231;52.514;13.438;2023-05-01T05:42:57;101451.27;;;12.59;36.62
38452;BME280;24231;52.514;13.438;2023-05-01T05:45:24;101446.43;;;14.11;33.69
38452;BME280;24231;52.514;13.438;2023-05-01T05:47:51;101438.52;;;15.02;32.04
38452;BME280;24231;52.514;13.438;2023-05-01T05:50:19;101441.43;;;14.47;32.89
38452;BME280;24231;52.514;13.438;2023-05-01T05:52:46;101441.11;;;14.46;32.65
38452;BME280;24231;52.514;13.438;2023-05-01T05:55:14;101452.51;;;11.67;37.35
38452;BME280;24231;52.514;13.438;2023-05-01T05:57:41;101451.10;;;11.81;37.50
38452;BME280;24231;52.514;13.438;2023-05-01T06:00:09;101434.74;;;14.29;33.60
38452;BME280;24231;52.514;13.438;2023-05-01T06:02:36;101437.45;;;12.80;35.45
38452;BME280;24231;52.514;13.438;2023-05-01T06:05:04;101436.19;;;13.03;35.50
38452;BME280;24231;52.514;13.438;2023-05-01T06:07:32;101431.64;;;13.54;34.52
38452;BME280;24231;52.514;13.438;2023-05-01T06:09:59;101434.07;;;13.31;34.68
38452;BME280;24231;52.514;13.438;2023-05-01T06:12:26;101430.80;;;14.19;33.15
38452;BME280;24231;52.514;13.438;2023-05-01T06:14:53;101432.92;;;14.67;32.65
38452;BME280;24231;52.514;13.438;2023-05-01T06:17:20;101430.22;;;14.34;33.12
38452;BME280;24231;52.514;13.438;2023-05-01T06:19:47;101435.38;;;15.39;31.27
38452;BME280;24231;52.514;13.438;2023-05-01T06:22:14;101429.65;;;14.93;31.94
38452;BME280;24231;52.514;13.438;2023-05-01T06:24:41;101435.64;;;14.22;33.14
38452;BME280;24231;52.514;13.438;2023-05-01T06:27:08;101430.25;;;15.88;30.70
38452;BME280;24231;52.514;13.438;2023-05-01T06:29:35;101428.02;;;15.64;31.02
38452;BME280;24231;52.514;13.438;2023-05-01T06:32:02;101428.77;;;16.05;30.20
38452;BME280;24231;52.514;13.438;2023-05-01T06:34:29;101426.70;;;14.68;31.95
38452;BME280;24231;52.514;13.438;2023-05-01T06:36:56;101419.79;;;14.69;31.89
38452;BME280;24231;52.514;13.438;2023-05-01T06:39:23;101434.83;;;13.64;33.73
38452;BME280;24231;52.514;13.438;2023-05-01T06:41:50;101427.31;;;13.56;34.09
38452;BME280;24231;52.514;13.438;2023-05-01T06:44:17;101423.11;;;13.73;34.20
38452;BME280;24231;52.514;13.438;2023-05-01T06:46:50;101426.50;;;13.95;33.50
38452;BME280;24231;52.514;13.438;2023-05-01T06:49:17;101420.91;;;13.67;33.62
38452;BME280;24231;52.514;13.438;2023-05-01T06:51:44;101410.71;;;16.74;29.62
38452;BME280;24231;52.514;13.438;2023-05-01T06:54:11;101418.12;;;15.43;30.82
38452;BME280;24231;52.514;13.438;2023-05-01T06:56:38;101411.13;;;16.84;29.10
38452;BME280;24231;52.514;13.438;2023-05-01T06:59:05;101410.62;;;16.73;28.96
38452;BME280;24231;52.514;13.438;2023-05-01T07:01:32;101415.44;;;16.25;29.65
38452;BME280;24231;52.514;13.438;2023-05-01T07:03:58;101410.85;;;17.70;27.55
38452;BME280;24231;52.514;13.438;2023-05-01T07:06:26;101416.10;;;17.33;28.11
38452;BME280;24231;52.514;13.438;2023-05-01T07:08:53;101413.45;;;17.50;27.83
38452;BME280;24231;52.514;13.438;2023-05-01T07:11:21;101407.69;;;18.43;26.59
38452;BME280;24231;52.514;13.438;2023-05-01T07:13:47;101411.65;;;16.48;29.17
38452;BME280;24231;52.514;13.438;2023-05-01T07:16:14;101402.25;;;18.29;26.79
38452;BME280;24231;52.514;13.438;2023-05-01T07:18:42;101399.17;;;19.63;25.21
38452;BME280;24231;52.514;13.438;2023-05-01T07:21:09;101403.75;;;17.66;27.73
38452;BME280;24231;52.514;13.438;2023-05-01T07:23:36;101403.48;;;16.49;29.14
38452;BME280;24231;52.514;13.438;2023-05-01T07:26:05;101398.91;;;17.69;27.75
38452;BME280;24231;52.514;13.438;2023-05-01T07:28:32;101398.60;;;17.60;28.13
38452;BME280;24231;52.514;13.438;2023-05-01T07:30:59;101397.09;;;18.33;26.79
38452;BME280;24231;52.514;13.438;2023-05-01T07:33:26;101397.71;;;17.04;28.42
38452;BME280;24231;52.514;13.438;2023-05-01T07:35:54;101393.63;;;17.45;28.15
38452;BME280;24231;52.514;13.438;2023-05-01T07:38:21;101389.71;;;16.64;29.16
38452;BME280;24231;52.514;13.438;2023-05-01T07:40:51;101388.13;;;17.27;27.92
38452;BME280;24231;52.514;13.438;2023-05-01T07:43:19;101380.82;;;17.49;27.83
38452;BME280;24231;52.514;13.438;2023-05-01T07:45:54;101378.24;;;18.50;26.56
38452;BME280;24231;52.514;13.438;2023-05-01T07:48:21;101367.62;;;18.48;26.56
38452;BME280;24231;52.514;13.438;2023-05-01T07:50:48;101366.44;;;18.30;26.52
38452;BME280;24231;52.514;13.438;2023-05-01T07:53:15;101371.05;;;18.03;27.34
38452;BME280;24231;52.514;13.438;2023-05-01T07:55:43;101370.67;;;17.54;27.42
38452;BME280;24231;52.514;13.438;2023-05-01T07:58:11;101365.96;;;18.29;26.15
38452;BME280;24231;52.514;13.438;2023-05-01T08:00:38;101369.94;;;17.25;27.82
38452;BME280;24231;52.514;13.438;2023-05-01T08:03:05;101355.88;;;18.10;26.79
38452;BME280;24231;52.514;13.438;2023-05-01T08:05:32;101352.11;;;17.91;27.13
38452;BME280;24231;52.514;13.438;2023-05-01T08:07:59;101350.86;;;17.81;27.21
38452;BME280;24231;52.514;13.438;2023-05-01T08:10:26;101351.75;;;17.43;28.02
38452;BME280;24231;52.514;13.438;2023-05-01T08:12:53;101348.00;;;17.06;27.98
38452;BME280;24231;52.514;13.438;2023-05-01T08:15:20;101352.50;;;17.09;28.01
38452;BME280;24231;52.514;13.438;2023-05-01T08:17:48;101360.44;;;16.90;28.19
38452;BME280;24231;52.514;13.438;2023-05-01T08:20:15;101352.30;;;16.75;28.41
38452;BME280;24231;52.514;13.438;2023-05-01T08:22:43;101349.70;;;16.48;28.70
38452;BME280;24231;52.514;13.438;2023-05-01T08:25:10;101347.77;;;16.78;28.55
38452;BME280;24231;52.514;13.438;2023-05-01T08:27:37;101344.14;;;17.01;28.37
38452;BME280;24231;52.514;13.438;2023-05-01T08:30:05;101342.48;;;17.39;27.90
38452;BME280;24231;52.514;13.438;2023-05-01T08:32:31;101337.49;;;17.81;27.30
38452;BME280;24231;52.514;13.438;2023-05-01T08:34:58;101340.01;;;17.37;27.77
38452;BME280;24231;52.514;13.438;2023-05-01T08:37:25;101342.99;;;17.57;27.53
38452;BME280;24231;52.514;13.438;2023-05-01T08:40:03;101335.90;;;18.70;25.88
38452;BME280;24231;52.514;13.438;2023-05-01T08:42:30;101336.17;;;18.70;26.37
38452;BME280;24231;52.514;13.438;2023-05-01T08:44:58;101329.99;;;18.24;26.51
38452;BME280;24231;52.514;13.438;2023-05-01T08:47:25;101327.73;;;18.27;26.48
38452;BME280;24231;52.514;13.438;2023-05-01T08:49:54;101326.87;;;17.32;27.12
38452;BME280;24231;52.514;13.438;2023-05-01T08:52:23;101323.17;;;17.39;26.92
38452;BME280;24231;52.514;13.438;2023-05-01T08:54:53;101314.61;;;17.82;26.40
38452;BME280;24231;52.514;13.438;2023-05-01T08:57:23;101315.25;;;17.87;26.23
38452;BME280;24231;52.514;13.438;2023-05-01T08:59:52;101314.98;;;18.51;25.60
38452;BME280;24231;52.514;13.438;2023-05-01T09:02:22;101312.17;;;17.48;25.85
38452;BME280;24231;52.514;13.438;2023-05-01T09:04:50;101310.78;;;17.26;26.32
38452;BME280;24231;52.514;13.438;2023-05-01T09:07:17;101300.26;;;18.21;25.39
38452;BME280;24231;52.514;13.438;2023-05-01T09:09:44;101298.56;;;18.25;25.24
38452;BME280;24231;52.514;13.438;2023-05-01T09:12:17;101296.50;;;16.51;27.40
38452;BME280;24231;52.514;13.438;2023-05-01T09:14:46;101294.17;;;16.78;27.24
38452;BME280;24231;52.514;13.438;2023-05-01T09:17:14;101281.78;;;16.95;27.26
38452;BME280;24231;52.514;13.438;2023-05-01T09:19:41;101280.20;;;17.39;26.60
38452;BME280;24231;52.514;13.438;2023-05-01T09:22:08;101273.04;;;17.65;26.69
38452;BME280;24231;52.514;13.438;2023-05-01T09:24:36;101272.06;;;17.64;26.36
38452;BME280;24231;52.514;13.438;2023-05-01T09:27:03;101269.17;;;17.42;26.43
38452;BME280;24231;52.514;13.438;2023-05-01T09:29:36;101267.75;;;17.58;26.47
38452;BME280;24231;52.514;13.438;2023-05-01T09:33:06;101263.50;;;17.58;26.78
38452;BME280;24231;52.514;13.438;2023-05-01T09:35:49;101262.49;;;17.45;26.79
38452;BME280;24231;52.514;13.438;2023-05-01T09:38:17;101256.70;;;17.79;26.20
38452;BME280;24231;52.514;13.438;2023-05-01T09:40:45;101259.70;;;18.45;25.75
38452;BME280;24231;52.514;13.438;2023-05-01T09:43:12;101249.34;;;18.04;25.91
38452;BME280;24231;52.514;13.438;2023-05-01T09:45:42;101247.08;;;17.86;26.33
38452;BME280;24231;52.514;13.438;2023-05-01T09:48:09;101239.49;;;19.04;24.68
38452;BME280;24231;52.514;13.438;2023-05-01T09:50:37;101235.92;;;18.82;25.01
38452;BME280;24231;52.514;13.438;2023-05-01T09:53:04;101232.52;;;18.77;25.42
38452;BME280;24231;52.514;13.438;2023-05-01T09:55:32;101223.03;;;19.74;24.12
38452;BME280;24231;52.514;13.438;2023-05-01T09:57:59;101224.77;;;20.99;23.49
38452;BME280;24231;52.514;13.438;2023-05-01T10:00:27;101223.33;;;19.51;25.15
38452;BME280;24231;52.514;13.438;2023-05-01T10:02:54;101227.09;;;18.55;26.24
38452;BME280;24231;52.514;13.438;2023-05-01T10:05:21;101230.21;;;18.28;26.61
38452;BME280;24231;52.514;13.438;2023-05-01T10:07:57;101224.86;;;18.59;26.09
38452;BME280;24231;52.514;13.438;2023-05-01T10:10:25;101213.21;;;19.11;25.82
38452;BME280;24231;52.514;13.438;2023-05-01T10:12:52;101213.97;;;18.87;25.89
38452;BME280;24231;52.514;13.438;2023-05-01T10:15:19;101223.74;;;18.25;26.87
38452;BME280;24231;52.514;13.438;2023-05-01T10:17:49;101218.84;;;17.70;27.65
38452;BME280;24231;52.514;13.438;2023-05-01T10:20:16;101213.24;;;17.83;27.26
38452;BME280;24231;52.514;13.438;2023-05-01T10:22:43;101203.06;;;17.63;27.98
38452;BME280;24231;52.514;13.438;2023-05-01T10:25:11;101203.87;;;17.77;27.12
38452;BME280;24231;52.514;13.438;2023-05-01T10:27:39;101201.37;;;18.28;26.91
38452;BME280;24231;52.514;13.438;2023-05-01T10:30:08;101204.99;;;17.98;27.33
38452;BME280;24231;52.514;13.438;2023-05-01T10:32:36;101199.83;;;17.98;27.23
38452;BME280;24231;52.514;13.438;2023-05-01T10:35:08;101192.90;;;17.55;27.76
38452;BME280;24231;52.514;13.438;2023-05-01T10:37:43;101190.95;;;17.83;27.28
38452;BME280;24231;52.514;13.438;2023-05-01T10:40:46;101186.38;;;19.04;26.25
38452;BME280;24231;52.514;13.438;2023-05-01T10:43:15;101186.48;;;17.83;27.15
38452;BME280;24231;52.514;13.438;2023-05-01T10:45:42;101169.62;;;17.74;27.27
38452;BME280;24231;52.514;13.438;2023-05-01T10:48:10;101168.67;;;17.56;28.23
38452;BME280;24231;52.514;13.438;2023-05-01T10:51:10;101167.72;;;17.23;28.69
38452;BME280;24231;52.514;13.438;2023-05-01T10:53:38;101160.73;;;17.49;28.36
38452;BME280;24231;52.514;13.438;2023-05-01T10:56:39;101154.97;;;17.42;28.53
38452;BME280;24231;52.514;13.438;2023-05-01T10:59:07;101150.10;;;17.29;28.30
38452;BME280;24231;52.514;13.438;2023-05-01T11:01:36;101151.20;;;17.73;27.65
38452;BME280;24231;52.514;13.438;2023-05-01T11:04:04;101150.77;;;16.89;28.56
38452;BME280;24231;52.514;13.438;2023-05-01T11:06:32;101144.79;;;17.24;28.35
38452;BME280;24231;52.514;13.438;2023-05-01T11:09:00;101133.25;;;17.80;27.78
38452;BME280;24231;52.514;13.438;2023-05-01T11:11:59;101128.19;;;18.97;26.72
38452;BME280;24231;52.514;13.438;2023-05-01T11:14:26;101127.64;;;17.67;27.79
38452;BME280;24231;52.514;13.438;2023-05-01T11:16:53;101128.29;;;16.98;28.15
38452;BME280;24231;52.514;13.438;2023-05-01T11:19:52;101123.58;;;16.64;28.47
38452;BME280;24231;52.514;13.438;2023-05-01T11:22:20;101119.02;;;16.82;28.17
38452;BME280;24231;52.514;13.438;2023-05-01T11:24:48;101108.56;;;16.53;28.30
38452;BME280;24231;52.514;13.438;2023-05-01T11:27:15;101095.58;;;16.93;27.35
38452;BME280;24231;52.514;13.438;2023-05-01T11:29:44;101099.20;;;16.75;27.83
38452;BME280;24231;52.514;13.438;2023-05-01T11:32:17;101096.55;;;16.34;28.22
38452;BME280;24231;52.514;13.438;2023-05-01T11:34:45;101089.23;;;16.82;27.77
38452;BME280;24231;52.514;13.438;2023-05-01T11:37:13;101082.37;;;17.17;27.49
38452;BME280;24231;52.514;13.438;2023-05-01T11:39:47;101081.97;;;17.16;28.13
38452;BME280;24231;52.514;13.438;2023-05-01T11:42:14;101083.95;;;17.36;28.35
38452;BME280;24231;52.514;13.438;2023-05-01T11:44:41;101080.48;;;17.80;27.91
38452;BME280;24231;52.514;13.438;2023-05-01T11:47:08;101080.52;;;17.59;28.50
38452;BME280;24231;52.514;13.438;2023-05-01T11:49:35;101069.54;;;18.30;27.25
38452;BME280;24231;52.514;13.438;2023-05-01T11:52:03;101074.18;;;17.49;28.36
38452;BME280;24231;52.514;13.438;2023-05-01T11:54:30;101070.08;;;17.10;28.31
38452;BME280;24231;52.514;13.438;2023-05-01T11:56:59;101063.78;;;17.67;27.52
38452;BME280;24231;52.514;13.438;2023-05-01T11:59:26;101054.69;;;18.26;26.91
38452;BME280;24231;52.514;13.438;2023-05-01T12:01:54;101058.61;;;17.44;27.75
38452;BME280;24231;52.514;13.438;2023-05-01T12:04:23;101047.22;;;18.97;25.63
38452;BME280;24231;52.514;13.438;2023-05-01T12:06:50;101044.55;;;18.24;26.37
38452;BME280;24231;52.514;13.438;2023-05-01T12:09:19;101043.46;;;17.84;27.08
38452;BME280;24231;52.514;13.438;2023-05-01T12:11:56;101044.90;;;17.35;27.72
38452;BME280;24231;52.514;13.438;2023-05-01T12:14:24;101042.29;;;17.56;27.45
38452;BME280;24231;52.514;13.438;2023-05-01T12:16:52;101046.78;;;16.97;27.97
38452;BME280;24231;52.514;13.438;2023-05-01T12:19:19;101043.75;;;16.88;28.32
38452;BME280;24231;52.514;13.438;2023-05-01T12:21:47;101042.60;;;17.02;28.22
38452;BME280;24231;52.514;13.438;2023-05-01T12:24:16;101037.09;;;17.56;27.79
38452;BME280;24231;52.514;13.438;2023-05-01T12:26:44;101024.19;;;17.57;27.48
38452;BME280;24231;52.514;13.438;2023-05-01T12:29:11;101027.66;;;17.72;27.46
38452;BME280;24231;52.514;13.438;2023-05-01T12:31:45;101019.40;;;16.86;28.58
38452;BME280;24231;52.514;13.438;2023-05-01T12:34:12;101016.74;;;17.89;27.46
38452;BME280;24231;52.514;13.438;2023-05-01T12:36:39;101018.73;;;17.46;28.06
38452;BME280;24231;52.514;13.438;2023-05-01T12:39:08;101015.58;;;17.26;28.01
38452;BME280;24231;52.514;13.438;2023-05-01T12:41:37;101008.22;;;17.73;27.27
38452;BME280;24231;52.514;13.438;2023-05-01T12:44:22;100997.07;;;18.68;25.80
38452;BME280;24231;52.514;13.438;2023-05-01T12:46:54;100989.39;;;18.89;25.90
38452;BME280;24231;52.514;13.438;2023-05-01T12:49:21;100985.34;;;18.65;26.44
38452;BME280;24231;52.514;13.438;2023-05-01T12:51:50;100985.92;;;17.84;27.67
38452;BME280;24231;52.514;13.438;2023-05-01T12:54:19;100993.68;;;16.95;29.08
38452;BME280;24231;52.514;13.438;2023-05-01T12:56:46;100986.94;;;17.50;28.19
38452;BME280;24231;52.514;13.438;2023-05-01T12:59:22;100992.30;;;17.53;28.22
38452;BME280;24231;52.514;13.438;2023-05-01T13:01:56;100986.33;;;17.59;28.19